createdAt,value
2019-06-01T00:04:03.586Z,13.87
2019-06-01T00:09:09.146Z,13.85
2019-06-01T00:14:14.502Z,13.74
2019-06-01T00:19:19.966Z,13.63
2019-06-01T00:24:25.539Z,13.60
2019-06-01T00:29:30.866Z,13.43
2019-06-01T00:34:36.403Z,13.39
2019-06-01T00:39:41.789Z,13.42
2019-06-01T00:44:48.501Z,13.43
2019-06-01T00:49:53.818Z,13.38
2019-06-01T00:54:59.076Z,13.36
2019-06-01T01:00:06.510Z,13.33
2019-06-01T01:05:17.341Z,13.30
2019-06-01T01:10:22.954Z,13.20
2019-06-01T01:15:28.346Z,13.04
2019-06-01T01:20:34.177Z,12.84
2019-06-01T01:25:39.540Z,12.80
2019-06-01T01:31:01.688Z,12.76
2019-06-01T01:35:52.566Z,12.72
2019-06-01T01:40:59.458Z,12.70
2019-06-01T01:46:05.358Z,12.59
2019-06-01T01:51:11.700Z,12.63
2019-06-01T01:56:17.163Z,12.64
2019-06-01T02:01:23.268Z,12.58
2019-06-01T02:06:29.295Z,12.57
2019-06-01T02:11:34.863Z,12.53
2019-06-01T02:16:40.229Z,12.52
2019-06-01T02:21:45.548Z,12.56
2019-06-01T02:26:53.030Z,12.54
2019-06-01T02:31:59.162Z,12.59
2019-06-01T02:37:04.700Z,12.58
2019-06-01T02:42:11.868Z,12.61
2019-06-01T02:47:17.399Z,12.63
2019-06-01T02:52:22.906Z,12.69
2019-06-01T02:57:28.151Z,12.68
2019-06-01T03:02:33.779Z,12.72
2019-06-01T03:07:42.919Z,12.80
2019-06-01T03:12:50.568Z,12.80
2019-06-01T03:17:59.410Z,12.89
2019-06-01T03:23:05.818Z,12.84
2019-06-01T03:28:14.044Z,12.89
2019-06-01T03:33:19.444Z,12.92
2019-06-01T03:38:24.904Z,12.99
2019-06-01T03:43:30.272Z,13.03
2019-06-01T03:48:35.830Z,13.08
2019-06-01T03:53:41.185Z,13.10
2019-06-01T03:58:46.749Z,13.21
2019-06-01T04:03:52.107Z,13.31
2019-06-01T04:08:57.423Z,13.42
2019-06-01T04:14:03.414Z,13.49
2019-06-01T04:19:10.032Z,13.60
2019-06-01T04:24:15.498Z,13.69
2019-06-01T04:29:20.735Z,13.81
2019-06-01T04:34:26.008Z,13.88
2019-06-01T04:39:31.371Z,14.05
2019-06-01T04:44:36.841Z,14.08
2019-06-01T04:49:42.134Z,14.19
2019-06-01T04:54:47.382Z,14.21
2019-06-01T04:59:52.634Z,14.35
2019-06-01T05:04:58.169Z,14.44
2019-06-01T05:10:05.171Z,14.54
2019-06-01T05:15:15.975Z,14.59
2019-06-01T05:20:21.937Z,14.64
2019-06-01T05:25:27.317Z,14.74
2019-06-01T05:30:32.559Z,14.81
2019-06-01T05:35:37.853Z,14.95
2019-06-01T05:40:43.281Z,15.06
2019-06-01T05:45:48.606Z,15.25
2019-06-01T05:50:53.892Z,15.44
2019-06-01T05:55:59.321Z,15.65
2019-06-01T06:01:04.792Z,15.93
2019-06-01T06:06:10.088Z,16.36
2019-06-01T06:11:15.349Z,16.59
2019-06-01T06:16:21.273Z,16.85
2019-06-01T06:21:27.891Z,16.95
2019-06-01T06:26:33.080Z,17.29
2019-06-01T06:31:38.586Z,17.05
2019-06-01T06:36:43.729Z,16.96
2019-06-01T06:41:48.864Z,16.98
2019-06-01T06:46:54.009Z,16.99
2019-06-01T06:51:59.388Z,17.02
2019-06-01T06:57:04.596Z,17.13
2019-06-01T07:02:09.948Z,17.26
2019-06-01T07:07:15.380Z,17.28
2019-06-01T07:12:21.226Z,17.29
2019-06-01T07:17:27.775Z,17.40
2019-06-01T07:22:32.846Z,17.77
2019-06-01T07:27:38.041Z,18.01
2019-06-01T07:32:43.226Z,18.57
2019-06-01T07:37:48.538Z,18.75
2019-06-01T07:42:53.805Z,19.03
2019-06-01T07:53:58.114Z,19.67
2019-06-01T07:59:04.470Z,19.64
2019-06-01T08:04:09.860Z,19.73
2019-06-01T08:09:15.025Z,19.84
2019-06-01T08:14:20.462Z,20.15
2019-06-01T08:19:26.157Z,20.15
2019-06-01T08:24:32.409Z,20.59
2019-06-01T08:29:38.044Z,20.76
2019-06-01T08:34:43.615Z,20.59
2019-06-01T08:39:49.027Z,20.69
2019-06-01T08:44:54.382Z,20.70
2019-06-01T08:49:59.917Z,20.78
2019-06-01T08:55:07.797Z,20.42
2019-06-01T09:00:14.191Z,20.33
2019-06-01T09:05:24.292Z,20.51
2019-06-01T09:10:27.541Z,20.88
2019-06-01T09:15:33.725Z,21.00
2019-06-01T09:20:39.159Z,21.18
2019-06-01T09:25:45.137Z,21.18
2019-06-01T09:30:50.774Z,21.39
2019-06-01T09:35:56.568Z,21.00
2019-06-01T09:41:02.044Z,20.88
2019-06-01T09:46:07.448Z,21.11
2019-06-01T09:51:12.919Z,21.12
2019-06-01T09:56:18.371Z,21.60
2019-06-01T10:01:23.633Z,21.59
2019-06-01T10:06:28.854Z,21.75
2019-06-01T10:11:34.353Z,22.08
2019-06-01T10:16:40.031Z,21.72
2019-06-01T10:21:45.250Z,22.11
2019-06-01T10:26:51.136Z,21.99
2019-06-01T10:31:56.344Z,22.17
2019-06-01T10:37:01.656Z,22.37
2019-06-01T10:42:07.128Z,22.85
2019-06-01T10:47:13.508Z,22.78
2019-06-01T10:52:18.967Z,22.70
2019-06-01T10:57:24.090Z,23.20
2019-06-01T11:02:29.394Z,23.82
2019-06-01T11:07:36.760Z,23.49
2019-06-01T11:12:43.263Z,23.68
2019-06-01T11:17:48.640Z,24.22
2019-06-01T11:22:53.733Z,24.99
2019-06-01T11:27:59.109Z,24.97
2019-06-01T11:33:04.416Z,25.04
2019-06-01T11:38:09.665Z,24.77
2019-06-01T11:43:14.801Z,24.59
2019-06-01T11:48:20.356Z,24.36
2019-06-01T11:53:25.825Z,24.46
2019-06-01T11:58:31.090Z,23.91
2019-06-01T12:03:37.556Z,24.26
2019-06-01T12:08:44.075Z,24.31
2019-06-01T12:13:50.037Z,23.97
2019-06-01T12:18:55.378Z,23.73
2019-06-01T12:24:00.460Z,23.74
2019-06-01T12:29:05.892Z,24.00
2019-06-01T12:34:11.147Z,24.32
2019-06-01T12:39:17.460Z,24.65
2019-06-01T12:44:22.730Z,25.52
2019-06-01T12:49:28.855Z,26.19
2019-06-01T12:54:34.161Z,26.18
2019-06-01T12:59:40.976Z,25.68
2019-06-01T13:04:46.865Z,25.52
2019-06-01T13:09:53.006Z,26.66
2019-06-01T13:14:58.405Z,27.55
2019-06-01T13:20:07.470Z,28.57
2019-06-01T13:25:13.951Z,27.85
2019-06-01T13:30:19.450Z,27.10
2019-06-01T13:35:24.586Z,26.50
2019-06-01T13:40:30.027Z,26.69
2019-06-01T13:45:35.263Z,26.63
2019-06-01T13:50:40.384Z,28.15
2019-06-01T13:55:46.098Z,27.97
2019-06-01T14:00:53.116Z,27.69
2019-06-01T14:06:00.972Z,26.46
2019-06-01T14:11:05.639Z,26.15
2019-06-01T14:16:10.796Z,26.59
2019-06-01T14:21:16.003Z,27.67
2019-06-01T14:26:21.334Z,27.06
2019-06-01T14:31:26.527Z,27.88
2019-06-01T14:36:31.936Z,27.97
2019-06-01T14:41:38.785Z,30.62
2019-06-01T14:46:55.024Z,30.23
2019-06-01T14:51:51.570Z,30.12
2019-06-01T14:56:57.950Z,29.23
2019-06-01T15:02:03.869Z,27.00
2019-06-01T15:07:09.273Z,26.36
2019-06-01T15:12:14.975Z,25.55
2019-06-01T15:17:20.768Z,25.14
2019-06-01T15:22:26.366Z,24.62
2019-06-01T15:27:34.232Z,23.88
2019-06-01T15:32:39.993Z,21.33
2019-06-01T15:37:46.030Z,20.35
2019-06-01T15:42:52.250Z,19.96
2019-06-01T15:48:00.568Z,19.77
2019-06-01T15:53:05.887Z,19.92
2019-06-01T15:58:11.177Z,19.90
2019-06-01T16:03:16.544Z,19.88
2019-06-01T16:08:21.901Z,20.13
2019-06-01T16:13:27.358Z,20.69
2019-06-01T16:18:32.616Z,22.25
2019-06-01T16:23:49.302Z,24.14
2019-06-01T16:28:45.283Z,25.08
2019-06-01T16:33:50.714Z,25.60
2019-06-01T16:39:02.732Z,24.67
2019-06-01T16:44:03.777Z,23.66
2019-06-01T16:49:09.195Z,22.66
2019-06-01T16:54:14.757Z,22.34
2019-06-01T16:59:20.108Z,21.95
2019-06-01T17:04:25.272Z,21.69
2019-06-01T17:09:30.471Z,21.56
2019-06-01T17:14:35.587Z,21.89
2019-06-01T17:19:41.010Z,21.69
2019-06-01T17:24:46.047Z,21.41
2019-06-01T17:29:51.293Z,21.10
2019-06-01T17:34:56.451Z,20.86
2019-06-01T17:40:02.469Z,20.79
2019-06-01T17:45:09.609Z,20.67
2019-06-01T17:50:18.280Z,20.64
2019-06-01T17:55:38.600Z,20.50
2019-06-01T18:00:44.067Z,20.33
2019-06-01T18:05:49.531Z,20.30
2019-06-01T18:10:55.203Z,20.01
2019-06-01T18:16:03.024Z,19.81
2019-06-01T18:21:10.380Z,19.70
2019-06-01T18:26:16.367Z,19.50
2019-06-01T18:31:22.505Z,19.49
2019-06-01T18:36:27.793Z,19.33
2019-06-01T18:41:32.850Z,19.21
2019-06-01T18:46:38.375Z,19.06
2019-06-01T18:51:43.892Z,19.14
2019-06-01T18:56:49.480Z,19.12
2019-06-01T19:01:54.905Z,19.00
2019-06-01T19:07:00.172Z,18.77
2019-06-01T19:12:06.682Z,18.71
2019-06-01T19:17:12.358Z,18.49
2019-06-01T19:22:17.900Z,18.37
2019-06-01T19:27:23.251Z,18.43
2019-06-01T19:32:28.720Z,18.29
2019-06-01T19:37:38.656Z,18.13
2019-06-01T19:42:43.681Z,17.96
2019-06-01T19:47:49.280Z,17.79
2019-06-01T19:52:54.966Z,17.73
2019-06-01T19:58:00.524Z,17.63
2019-06-01T20:03:06.719Z,17.46
2019-06-01T20:08:12.213Z,17.44
2019-06-01T20:13:17.457Z,17.52
2019-06-01T20:18:23.038Z,17.44
2019-06-01T20:23:28.409Z,17.31
2019-06-01T20:28:34.015Z,16.96
2019-06-01T20:33:39.351Z,17.00
2019-06-01T20:38:44.733Z,16.85
2019-06-01T20:43:50.094Z,16.84
2019-06-01T20:48:55.653Z,16.84
2019-06-01T20:54:00.922Z,16.84
2019-06-01T20:59:06.682Z,16.77
2019-06-01T21:04:11.898Z,16.59
2019-06-01T21:09:17.817Z,16.55
2019-06-01T21:14:23.393Z,16.48
2019-06-01T21:19:28.833Z,16.47
2019-06-01T21:24:34.137Z,16.50
2019-06-01T21:29:39.451Z,16.57
2019-06-01T21:34:44.804Z,16.54
2019-06-01T21:39:50.267Z,16.51
2019-06-01T21:44:55.546Z,16.49
2019-06-01T21:50:00.823Z,16.44
2019-06-01T21:55:09.324Z,16.43
2019-06-01T22:00:28.537Z,16.42
2019-06-01T22:05:35.348Z,16.43
2019-06-01T22:10:40.739Z,16.32
2019-06-01T22:15:45.965Z,16.28
2019-06-01T22:20:52.366Z,16.34
2019-06-01T22:25:57.847Z,16.27
2019-06-01T22:31:03.299Z,16.19
2019-06-01T22:36:08.652Z,16.16
2019-06-01T22:41:13.921Z,16.18
2019-06-01T22:46:20.398Z,16.13
2019-06-01T22:51:27.053Z,16.09
2019-06-01T22:56:32.867Z,16.14
2019-06-01T23:01:39.853Z,16.06
2019-06-01T23:06:46.240Z,16.11
2019-06-01T23:11:51.491Z,15.98
2019-06-01T23:16:56.960Z,15.85
2019-06-01T23:22:02.323Z,15.89
2019-06-01T23:27:07.996Z,15.95
2019-06-01T23:32:13.342Z,15.85
2019-06-01T23:37:18.712Z,15.81
2019-06-01T23:42:24.577Z,15.77
2019-06-01T23:47:31.272Z,15.76
2019-06-01T23:52:37.034Z,15.81
2019-06-01T23:57:42.702Z,15.65
